Time;durP1;ratioP1;P1;durP2;ratioP2;P2;SDS_P1;SDS_P2;PMS_P1;PMS_P2;Temp;Humidity;BMP_temperature;BMP_pressure;BME280_temperature;BME280_humidity;BME280_pressure;Samples;Min_cycle;Max_cycle;Signal;HPM_P1;HPM_P2
2022/09/23 00:00:40;;;;;;;;;;;;;;;8.39;100.00;100682.88;3055772;19;19923;-53
2022/09/23 00:01:45;;;;;;;;;;;;;;;8.35;100.00;100681.31;3055549;19;20339;-52
2022/09/23 00:02:47;;;;;;;;;;;;;;;8.30;100.00;100673.53;3055998;19;20294;-53
2022/09/23 00:03:52;;;;;;;;;;;;;;;8.25;100.00;100681.72;3055677;19;19938;-53
2022/09/23 00:04:54;;;;;;;;;;;;;;;8.22;100.00;100681.00;3056164;19;20370;-53
2022/09/23 00:05:59;;;;;;;;;;;;;;;8.18;100.00;100685.63;3055519;19;19934;-53
2022/09/23 00:07:01;;;;;;;;;;;;;;;8.15;100.00;100696.41;3056892;19;19939;-53
2022/09/23 00:08:06;;;;;;;;;;;;;;;8.11;100.00;100686.84;3055413;19;19929;-53
2022/09/23 00:09:08;;;;;;;;;;;;;;;8.06;100.00;100688.88;3056683;19;19922;-53
2022/09/23 00:10:13;;;;;;;;;;;;;;;8.03;100.00;100685.50;3055570;19;19936;-53
2022/09/23 00:11:16;;;;;;;;;;;;;;;7.99;100.00;100684.78;3056238;19;20347;-53
2022/09/23 00:12:20;;;;;;;;;;;;;;;7.95;100.00;100686.75;3055562;19;19915;-53
2022/09/23 00:13:23;;;;;;;;;;;;;;;7.95;100.00;100680.56;3055789;19;20362;-53
2022/09/23 00:14:28;;;;;;;;;;;;;;;7.93;100.00;100687.75;3055706;19;19919;-53
2022/09/23 00:15:30;;;;;;;;;;;;;;;7.90;100.00;100685.22;3054695;19;19927;-53
2022/09/23 00:16:35;;;;;;;;;;;;;;;7.90;100.00;100685.22;3055038;19;19915;-53
2022/09/23 00:17:38;;;;;;;;;;;;;;;7.87;100.00;100686.22;3055147;19;19974;-53
2022/09/23 00:18:43;;;;;;;;;;;;;;;7.85;100.00;100688.09;3055669;19;19922;-53
2022/09/23 00:19:47;;;;;;;;;;;;;;;7.83;100.00;100678.50;3055963;19;20392;-53
2022/09/23 00:20:51;;;;;;;;;;;;;;;7.82;100.00;100679.44;3055924;19;19927;-54
2022/09/23 00:21:55;;;;;;;;;;;;;;;7.81;100.00;100675.03;3056175;19;19918;-53
2022/09/23 00:23:00;;;;;;;;;;;;;;;7.80;100.00;100678.63;3055509;19;19929;-53
2022/09/23 00:24:02;;;;;;;;;;;;;;;7.79;100.00;100675.13;3056417;19;19919;-53
2022/09/23 00:25:10;;;;;;;;;;;;;;;7.79;100.00;100676.91;3055498;19;20338;-53
2022/09/23 00:26:12;;;;;;;;;;;;;;;7.79;100.00;100680.44;3055884;19;20307;-53
2022/09/23 00:27:19;;;;;;;;;;;;;;;7.80;100.00;100678.63;3055803;19;19922;-53
2022/09/23 00:28:21;;;;;;;;;;;;;;;7.79;100.00;100680.44;3054745;19;19946;-53
2022/09/23 00:29:26;;;;;;;;;;;;;;;7.81;100.00;100683.88;3054595;19;20376;-53
2022/09/23 00:30:28;;;;;;;;;;;;;;;7.83;100.00;100678.50;3055745;19;19919;-53
2022/09/23 00:31:32;;;;;;;;;;;;;;;7.85;100.00;100676.59;3055544;19;19923;-54
2022/09/23 00:32:35;;;;;;;;;;;;;;;7.87;100.00;100669.44;3055955;19;19921;-53
2022/09/23 00:33:39;;;;;;;;;;;;;;;7.90;100.00;100674.59;3055563;19;19931;-53
2022/09/23 00:34:42;;;;;;;;;;;;;;;7.93;100.00;100675.31;3054493;19;19918;-53
2022/09/23 00:35:47;;;;;;;;;;;;;;;7.96;100.00;100666.34;3053216;19;20385;-53
2022/09/23 00:36:49;;;;;;;;;;;;;;;7.99;100.00;100668.84;3054568;19;19989;-53
2022/09/23 00:37:53;;;;;;;;;;;;;;;8.01;100.00;100664.31;3055171;19;20473;-53
2022/09/23 00:38:55;;;;;;;;;;;;;;;8.05;100.00;100659.72;3055548;19;19918;-52
2022/09/23 00:40:01;;;;;;;;;;;;;;;8.10;100.00;100660.34;3055589;19;20389;-53
2022/09/23 00:41:02;;;;;;;;;;;;;;;8.13;100.00;100663.72;3055529;19;20531;-53
2022/09/23 00:42:08;;;;;;;;;;;;;;;8.18;100.00;100668.81;3056176;19;20316;-53
2022/09/23 00:43:10;;;;;;;;;;;;;;;8.22;100.00;100660.59;3055607;19;19950;-53
2022/09/23 00:44:33;;;;;;;;;;;;;;;8.25;100.00;100671.09;3055091;19;19926;-53
2022/09/23 00:45:35;;;;;;;;;;;;;;;8.30;100.00;100662.91;3054655;19;20022;-53
2022/09/23 00:46:41;;;;;;;;;;;;;;;8.33;100.00;100656.63;3054830;19;19927;-53
2022/09/23 00:47:46;;;;;;;;;;;;;;;8.37;100.00;100663.47;3054264;19;20293;-53
2022/09/23 00:48:53;;;;;;;;;;;;;;;8.40;100.00;100663.34;3054828;19;20949;-53
2022/09/23 00:49:59;;;;;;;;;;;;;;;8.43;100.00;100657.88;3054913;19;20264;-53
2022/09/23 00:51:03;;;;;;;;;;;;;;;8.46;100.00;100657.69;3055753;19;19966;-53
2022/09/23 00:52:06;;;;;;;;;;;;;;;8.49;100.00;100665.53;3055801;19;19978;-53
2022/09/23 00:53:12;;;;;;;;;;;;;;;8.51;100.00;100661.00;3055636;19;19939;-52
2022/09/23 00:54:14;;;;;;;;;;;;;;;8.55;100.00;100667.91;3054338;19;19915;-54
2022/09/23 00:55:19;;;;;;;;;;;;;;;8.55;100.00;100666.09;3054517;19;19938;-53
2022/09/23 00:56:21;;;;;;;;;;;;;;;8.58;100.00;100668.59;3054818;19;19967;-53
2022/09/23 00:57:26;;;;;;;;;;;;;;;8.61;100.00;100676.41;3054863;19;19922;-53
2022/09/23 00:58:30;;;;;;;;;;;;;;;8.63;100.00;100669.22;3054461;19;19988;-53
2022/09/23 00:59:34;;;;;;;;;;;;;;;8.66;100.00;100670.88;3054421;19;19919;-53
2022/09/23 01:00:36;;;;;;;;;;;;;;;8.69;100.00;100665.41;3055588;19;19935;-53
2022/09/23 01:01:40;;;;;;;;;;;;;;;8.73;100.00;100677.59;3055614;19;19927;-53
2022/09/23 01:02:42;;;;;;;;;;;;;;;8.74;100.00;100668.69;3054522;19;20273;-53
2022/09/23 01:03:47;;;;;;;;;;;;;;;8.76;100.00;100672.13;3054294;19;19934;-53
2022/09/23 01:04:49;;;;;;;;;;;;;;;8.79;100.00;100674.63;3055104;19;19930;-53
2022/09/23 01:05:54;;;;;;;;;;;;;;;8.81;100.00;100679.88;3055181;19;19994;-53
2022/09/23 01:06:56;;;;;;;;;;;;;;;8.83;100.00;100668.19;3055279;19;19974;-53
2022/09/23 01:08:00;;;;;;;;;;;;;;;8.84;100.00;100672.59;3054027;19;19926;-54
2022/09/23 01:09:02;;;;;;;;;;;;;;;8.86;100.00;100676.03;3054424;19;19919;-53
2022/09/23 01:10:07;;;;;;;;;;;;;;;8.88;100.00;100676.81;3054211;19;20319;-53
2022/09/23 01:11:23;;;;;;;;;;;;;;;8.91;100.00;100668.69;3055671;19;20002;-53
2022/09/23 01:12:27;;;;;;;;;;;;;;;8.94;100.00;100679.16;3054347;19;20379;-53
2022/09/23 01:13:48;;;;;;;;;;;;;;;8.94;100.00;100671.16;3054716;19;19982;-55
2022/09/23 01:15:05;;;;;;;;;;;;;;;8.96;100.00;100671.94;3054645;19;19929;-52
2022/09/23 01:16:07;;;;;;;;;;;;;;;8.98;100.00;100672.72;3054486;19;19978;-53
2022/09/23 01:17:11;;;;;;;;;;;;;;;9.01;100.00;100677.91;3055154;19;19934;-52
2022/09/23 01:18:32;;;;;;;;;;;;;;;9.01;100.00;100672.59;3055230;19;19925;-54
2022/09/23 01:19:56;;;;;;;;;;;;;;;9.03;100.00;100678.69;3054816;19;19919;-53
2022/09/23 01:21:05;;;;;;;;;;;;;;;9.02;100.00;100684.97;3054123;19;19926;-53
2022/09/23 01:22:08;;;;;;;;;;;;;;;9.03;100.00;100686.69;3055518;19;19943;-53
2022/09/23 01:23:15;;;;;;;;;;;;;;;9.04;100.00;100692.88;3055132;19;19936;-53
2022/09/23 01:24:26;;;;;;;;;;;;;;;9.04;100.00;100676.91;3054488;19;19941;-53
2022/09/23 01:25:46;;;;;;;;;;;;;;;9.03;100.00;100686.69;3054410;19;19981;-53
2022/09/23 01:26:52;;;;;;;;;;;;;;;9.02;100.00;100692.94;3054653;19;19975;-53
2022/09/23 01:27:59;;;;;;;;;;;;;;;9.01;100.00;100693.03;3054707;19;20514;-52
2022/09/23 01:29:09;;;;;;;;;;;;;;;8.99;100.00;100687.78;3053834;19;19929;-53
2022/09/23 01:30:16;;;;;;;;;;;;;;;8.97;100.00;100691.44;3054483;19;19918;-53
2022/09/23 01:31:22;;;;;;;;;;;;;;;8.94;100.00;100697.78;3053794;19;20673;-53
2022/09/23 01:32:30;;;;;;;;;;;;;;;8.92;100.00;100699.69;3054696;19;20352;-53
2022/09/23 01:33:34;;;;;;;;;;;;;;;8.88;100.00;100703.44;3054075;19;19929;-53
2022/09/23 01:34:43;;;;;;;;;;;;;;;8.82;100.00;100695.75;3054982;19;20324;-53
2022/09/23 01:35:45;;;;;;;;;;;;;;;8.77;100.00;100700.47;3053520;19;19927;-54
2022/09/23 01:36:52;;;;;;;;;;;;;;;8.70;100.00;100701.69;3054081;19;19919;-53
2022/09/23 01:37:59;;;;;;;;;;;;;;;8.65;100.00;100706.41;3053952;19;19923;-53
2022/09/23 01:39:12;;;;;;;;;;;;;;;8.58;100.00;100704.97;3054270;19;20030;-53
2022/09/23 01:40:22;;;;;;;;;;;;;;;8.52;100.00;100705.28;3054621;19;19924;-53
2022/09/23 01:41:40;;;;;;;;;;;;;;;8.44;100.00;100703.00;3054111;19;19923;-52
2022/09/23 01:42:45;;;;;;;;;;;;;;;8.36;100.00;100709.63;3054666;19;19918;-53
2022/09/23 01:44:00;;;;;;;;;;;;;;;8.30;100.00;100711.63;3054534;19;19975;-54
2022/09/23 01:45:16;;;;;;;;;;;;;;;8.24;100.00;100711.06;3054576;19;20012;-52
2022/09/23 01:46:22;;;;;;;;;;;;;;;8.17;100.00;100707.84;3054491;19;20631;-52
2022/09/23 01:47:26;;;;;;;;;;;;;;;8.11;100.00;100710.78;3056246;19;20801;-53
2022/09/23 01:48:35;;;;;;;;;;;;;;;8.06;100.00;100706.63;3056808;19;20724;-53
2022/09/23 01:49:37;;;;;;;;;;;;;;;8.01;100.00;100698.88;3056469;19;19993;-53
2022/09/23 01:50:59;;;;;;;;;;;;;;;7.97;100.00;100703.47;3057197;19;19922;-53
2022/09/23 01:52:04;;;;;;;;;;;;;;;7.93;100.00;100709.00;3056768;19;20374;-53
2022/09/23 01:53:11;;;;;;;;;;;;;;;7.89;100.00;100705.63;3057207;19;19931;-52
2022/09/23 01:54:17;;;;;;;;;;;;;;;7.85;100.00;100697.84;3057044;19;19979;-52
2022/09/23 01:55:30;;;;;;;;;;;;;;;7.82;100.00;100703.34;3057225;19;20276;-54
2022/09/23 01:56:38;;;;;;;;;;;;;;;7.80;100.00;100707.84;3057130;19;20366;-53
2022/09/23 01:57:42;;;;;;;;;;;;;;;7.78;100.00;100704.41;3057344;19;19926;-52
2022/09/23 01:58:52;;;;;;;;;;;;;;;7.75;100.00;100704.53;3056243;19;19936;-53
2022/09/23 01:59:55;;;;;;;;;;;;;;;7.73;100.00;100709.09;3057800;19;19923;-53
2022/09/23 02:01:02;;;;;;;;;;;;;;;7.70;100.00;100709.22;3056332;19;20322;-52
2022/09/23 02:02:14;;;;;;;;;;;;;;;7.66;100.00;100712.94;3056712;19;19919;-53
2022/09/23 02:03:16;;;;;;;;;;;;;;;7.64;100.00;100706.81;3057434;19;20366;-52
2022/09/23 02:04:25;;;;;;;;;;;;;;;7.62;100.00;100711.34;3056726;19;19919;-53
2022/09/23 02:05:28;;;;;;;;;;;;;;;7.58;100.00;100706.19;3057076;19;20435;-53
2022/09/23 02:06:34;;;;;;;;;;;;;;;7.56;100.00;100701.88;3056165;19;19964;-53
2022/09/23 02:07:58;;;;;;;;;;;;;;;7.53;100.00;100697.56;3056959;19;19990;-53
2022/09/23 02:09:01;;;;;;;;;;;;;;;7.52;100.00;100702.94;3056898;19;19927;-53
2022/09/23 02:10:13;;;;;;;;;;;;;;;7.48;100.00;100704.91;3056675;19;19919;-53
2022/09/23 02:11:15;;;;;;;;;;;;;;;7.45;100.00;100699.72;3056561;19;20359;-53
2022/09/23 02:12:20;;;;;;;;;;;;;;;7.42;100.00;100705.16;3057203;19;19990;-53
2022/09/23 02:13:45;;;;;;;;;;;;;;;7.41;100.00;100702.56;3057427;19;19915;-52
2022/09/23 02:14:54;;;;;;;;;;;;;;;7.37;100.00;100699.19;3055542;19;20643;-53
2022/09/23 02:15:58;;;;;;;;;;;;;;;7.33;100.00;100700.28;3056350;19;19986;-53
2022/09/23 02:17:03;;;;;;;;;;;;;;;7.31;100.00;100695.97;3056617;19;19923;-53
2022/09/23 02:18:07;;;;;;;;;;;;;;;7.29;100.00;100698.69;3057157;19;19915;-53
2022/09/23 02:19:11;;;;;;;;;;;;;;;7.28;100.00;100701.38;3056118;19;19927;-53
2022/09/23 02:20:14;;;;;;;;;;;;;;;7.24;100.00;100701.53;3057211;19;19919;-53
2022/09/23 02:21:19;;;;;;;;;;;;;;;7.22;100.00;100694.59;3056466;19;19971;-52
2022/09/23 02:22:25;;;;;;;;;;;;;;;7.22;100.00;100699.88;3057050;19;19940;-53
2022/09/23 02:23:29;;;;;;;;;;;;;;;7.21;100.00;100695.50;3056601;19;20009;-52
2022/09/23 02:24:35;;;;;;;;;;;;;;;7.19;100.00;100692.91;3057357;19;19936;-53
2022/09/23 02:25:39;;;;;;;;;;;;;;;7.18;100.00;100692.97;3056251;19;19930;-53
2022/09/23 02:26:51;;;;;;;;;;;;;;;7.16;100.00;100692.19;3056737;19;19997;-53
2022/09/23 02:27:55;;;;;;;;;;;;;;;7.13;100.00;100690.53;3056109;19;19986;-52
2022/09/23 02:29:03;;;;;;;;;;;;;;;7.12;100.00;100693.28;3056678;19;19947;-52
2022/09/23 02:30:10;;;;;;;;;;;;;;;7.08;100.00;100694.31;3056186;19;20318;-52
2022/09/23 02:31:21;;;;;;;;;;;;;;;7.03;100.00;100685.69;3056776;19;20325;-53
2022/09/23 02:32:29;;;;;;;;;;;;;;;6.97;100.00;100691.28;3056745;19;20367;-53
2022/09/23 02:33:36;;;;;;;;;;;;;;;6.98;100.00;100695.66;3056454;19;19919;-53
2022/09/23 02:34:59;;;;;;;;;;;;;;;6.94;100.00;100697.56;3056560;19;19933;-53
2022/09/23 02:36:09;;;;;;;;;;;;;;;6.91;100.00;100688.88;3056980;19;19926;-53
2022/09/23 02:37:39;;;;;;;;;;;;;;;6.87;100.00;100693.47;3056649;19;19923;-53
2022/09/23 02:38:49;;;;;;;;;;;;;;;6.83;100.00;100690.09;3056415;19;20237;-53
2022/09/23 02:39:54;;;;;;;;;;;;;;;6.81;100.00;100691.06;3056476;19;20075;-52
2022/09/23 02:40:57;;;;;;;;;;;;;;;6.80;100.00;100692.00;3056848;19;19975;-52
2022/09/23 02:42:12;;;;;;;;;;;;;;;6.81;100.00;100691.94;3055723;19;20615;-53
2022/09/23 02:43:18;;;;;;;;;;;;;;;6.81;100.00;100694.59;3056539;19;19918;-53
2022/09/23 02:44:24;;;;;;;;;;;;;;;6.82;100.00;100698.09;3056309;19;20005;-52
2022/09/23 02:45:27;;;;;;;;;;;;;;;6.83;100.00;100692.72;3057207;19;19936;-53
2022/09/23 02:46:32;;;;;;;;;;;;;;;6.85;100.00;100693.53;3056540;19;20289;-52
2022/09/23 02:47:34;;;;;;;;;;;;;;;6.88;100.00;100693.38;3057572;19;19940;-53
2022/09/23 02:48:55;;;;;;;;;;;;;;;6.91;100.00;100691.53;3056757;19;19922;-53
2022/09/23 02:49:57;;;;;;;;;;;;;;;6.94;100.00;100691.41;3056492;19;19974;-53
2022/09/23 02:51:02;;;;;;;;;;;;;;;6.96;100.00;100692.19;3054943;19;20385;-52
2022/09/23 02:52:04;;;;;;;;;;;;;;;6.97;100.00;100688.63;3056316;19;20068;-53
2022/09/23 02:53:09;;;;;;;;;;;;;;;6.99;100.00;100689.44;3056096;19;20060;-52
2022/09/23 02:54:13;;;;;;;;;;;;;;;7.00;100.00;100693.81;3055831;19;20054;-53
2022/09/23 02:55:19;;;;;;;;;;;;;;;6.99;100.00;100684.13;3056362;19;19962;-53
2022/09/23 02:56:21;;;;;;;;;;;;;;;7.00;100.00;100691.16;3056155;19;20001;-53
2022/09/23 02:57:25;;;;;;;;;;;;;;;7.00;100.00;100689.38;3056075;19;19919;-52
2022/09/23 02:58:27;;;;;;;;;;;;;;;7.00;100.00;100685.84;3056306;19;19996;-53
2022/09/23 02:59:31;;;;;;;;;;;;;;;7.00;100.00;100685.84;3055293;19;19922;-53
2022/09/23 03:00:48;;;;;;;;;;;;;;;6.99;100.00;100684.13;3056896;19;20319;-53
2022/09/23 03:01:56;;;;;;;;;;;;;;;6.97;100.00;100685.97;3056167;19;20029;-53
2022/09/23 03:03:21;;;;;;;;;;;;;;;6.96;100.00;100685.09;3055740;19;19919;-53
2022/09/23 03:04:32;;;;;;;;;;;;;;;6.95;100.00;100678.06;3056270;19;19918;-53
2022/09/23 03:05:35;;;;;;;;;;;;;;;6.96;100.00;100684.25;3056870;19;20307;-53
2022/09/23 03:06:49;;;;;;;;;;;;;;;6.92;100.00;100682.66;3057163;19;19922;-53
2022/09/23 03:08:24;;;;;;;;;;;;;;;6.91;100.00;100687.09;3055993;19;20301;-53
2022/09/23 03:09:45;;;;;;;;;;;;;;;6.89;100.00;100678.31;3055062;19;19919;-52
2022/09/23 03:10:53;;;;;;;;;;;;;;;6.86;100.00;100678.47;3056634;19;19960;-53
2022/09/23 03:12:01;;;;;;;;;;;;;;;6.83;100.00;100684.78;3055967;19;19975;-52
2022/09/23 03:13:13;;;;;;;;;;;;;;;6.81;100.00;100686.63;3055411;19;19982;-53
2022/09/23 03:14:18;;;;;;;;;;;;;;;6.78;100.00;100681.44;3056619;19;20643;-53
2022/09/23 03:15:20;;;;;;;;;;;;;;;6.75;100.00;100681.59;3056198;19;20538;-53
2022/09/23 03:16:30;;;;;;;;;;;;;;;6.73;100.00;100683.44;3055515;19;19922;-52
2022/09/23 03:17:34;;;;;;;;;;;;;;;6.70;100.00;100683.56;3055470;19;19939;-52
2022/09/23 03:18:39;;;;;;;;;;;;;;;6.67;100.00;100683.69;3056425;19;19975;-53
2022/09/23 03:19:57;;;;;;;;;;;;;;;6.66;100.00;100676.66;3055780;19;19915;-52
2022/09/23 03:21:20;;;;;;;;;;;;;;;6.64;100.00;100680.34;3056468;19;19915;-52
2022/09/23 03:22:22;;;;;;;;;;;;;;;6.61;100.00;100676.03;3056783;19;20046;-53
2022/09/23 03:23:28;;;;;;;;;;;;;;;6.58;100.00;100681.44;3056724;19;19923;-52
2022/09/23 03:24:30;;;;;;;;;;;;;;;6.54;100.00;100677.19;3057052;19;19974;-52
2022/09/23 03:25:37;;;;;;;;;;;;;;;6.52;100.00;100672.91;3054990;19;19918;-53
2022/09/23 03:26:39;;;;;;;;;;;;;;;6.47;100.00;100675.72;3056598;19;19935;-53
2022/09/23 03:27:44;;;;;;;;;;;;;;;6.44;100.00;100681.16;3055453;19;19962;-52
2022/09/23 03:28:46;;;;;;;;;;;;;;;6.37;100.00;100671.75;3056303;19;20327;-53
2022/09/23 03:29:51;;;;;;;;;;;;;;;6.36;100.00;100672.66;3055703;19;19930;-53
2022/09/23 03:30:52;;;;;;;;;;;;;;;6.35;100.00;100673.59;3055567;19;20429;-53
2022/09/23 03:31:57;;;;;;;;;;;;;;;6.32;100.00;100673.69;3055422;19;19911;-53
2022/09/23 03:32:59;;;;;;;;;;;;;;;6.31;100.00;100683.44;3056196;19;20031;-53
2022/09/23 03:34:05;;;;;;;;;;;;;;;6.29;100.00;100672.03;3055278;19;20949;-52
2022/09/23 03:35:07;;;;;;;;;;;;;;;6.28;100.00;100677.44;3055981;19;20027;-53
2022/09/23 03:37:42;;;;;;;;;;;;;;;6.22;100.00;100681.19;3056792;19;20564;-53
2022/09/23 03:38:45;;;;;;;;;;;;;;;6.19;100.00;100681.28;3054976;19;19927;-53
2022/09/23 03:39:58;;;;;;;;;;;;;;;6.18;100.00;100668.09;3055974;19;20217;-53
2022/09/23 03:41:01;;;;;;;;;;;;;;;6.17;100.00;100671.66;3055775;19;20511;-52
2022/09/23 03:42:09;;;;;;;;;;;;;;;6.14;100.00;100677.97;3056535;19;19923;-52
2022/09/23 03:43:12;;;;;;;;;;;;;;;6.11;100.00;100683.41;3056047;19;19919;-52
2022/09/23 03:44:16;;;;;;;;;;;;;;;6.07;100.00;100677.34;3055149;19;19926;-53
2022/09/23 03:45:19;;;;;;;;;;;;;;;6.05;100.00;100679.19;3055769;19;19978;-53
2022/09/23 03:46:24;;;;;;;;;;;;;;;6.03;100.00;100674.91;3055397;19;19926;-54
2022/09/23 03:47:26;;;;;;;;;;;;;;;6.01;100.00;100674.97;3055657;19;19982;-52
2022/09/23 03:48:31;;;;;;;;;;;;;;;5.97;100.00;100675.13;3054476;19;19943;-53
2022/09/23 03:49:34;;;;;;;;;;;;;;;5.95;100.00;100667.25;3055624;19;20295;-53
2022/09/23 03:50:38;;;;;;;;;;;;;;;5.94;100.00;100681.41;3054762;19;20377;-52
2022/09/23 03:51:40;;;;;;;;;;;;;;;5.92;100.00;100670.00;3055247;19;19915;-53
2022/09/23 03:52:48;;;;;;;;;;;;;;;5.90;100.00;100679.81;3056032;19;19922;-53
2022/09/23 03:53:50;;;;;;;;;;;;;;;5.88;100.00;100676.38;3057398;19;19936;-53
2022/09/23 03:54:54;;;;;;;;;;;;;;;5.86;100.00;100672.88;3055328;19;19928;-53
2022/09/23 03:55:56;;;;;;;;;;;;;;;5.84;100.00;100680.00;3056408;19;20959;-52
2022/09/23 03:57:01;;;;;;;;;;;;;;;5.81;100.00;100680.13;3055756;19;19948;-53
2022/09/23 03:58:03;;;;;;;;;;;;;;;5.80;100.00;100673.97;3056378;19;19923;-53
2022/09/23 03:59:08;;;;;;;;;;;;;;;5.78;100.00;100675.84;3056381;19;19930;-52
2022/09/23 04:00:11;;;;;;;;;;;;;;;5.75;100.00;100680.38;3056572;19;19918;-52
2022/09/23 04:01:16;;;;;;;;;;;;;;;5.73;100.00;100682.22;3055013;19;19936;-53
2022/09/23 04:02:18;;;;;;;;;;;;;;;5.71;100.00;100684.06;3055723;19;19941;-53
2022/09/23 04:03:28;;;;;;;;;;;;;;;5.69;100.00;100681.47;3056346;19;19926;-53
2022/09/23 04:04:32;;;;;;;;;;;;;;;5.67;100.00;100679.81;3056489;19;19923;-52
2022/09/23 04:05:37;;;;;;;;;;;;;;;5.66;100.00;100686.03;3055461;19;20034;-53
2022/09/23 04:06:39;;;;;;;;;;;;;;;5.64;100.00;100685.22;3056147;19;20427;-54
2022/09/23 04:07:44;;;;;;;;;;;;;;;5.62;100.00;100684.41;3056072;19;19934;-53
2022/09/23 04:08:46;;;;;;;;;;;;;;;5.61;100.00;100693.28;3056505;19;19931;-52
2022/09/23 04:09:50;;;;;;;;;;;;;;;5.58;100.00;100686.31;3056540;19;20449;-52
2022/09/23 04:10:57;;;;;;;;;;;;;;;5.55;100.00;100688.22;3053380;19;20486;-53
2022/09/23 04:12:02;;;;;;;;;;;;;;;5.54;100.00;100682.06;3054576;19;19933;-52
2022/09/23 04:13:04;;;;;;;;;;;;;;;5.54;100.00;100683.84;3058549;19;19930;-53
2022/09/23 04:14:09;;;;;;;;;;;;;;;5.54;100.00;100686.50;3056701;19;19919;-52
2022/09/23 04:15:11;;;;;;;;;;;;;;;5.54;100.00;100683.84;3056937;19;19922;-52
2022/09/23 04:16:15;;;;;;;;;;;;;;;5.54;100.00;100686.50;3054784;19;19927;-52
2022/09/23 04:17:17;;;;;;;;;;;;;;;5.53;100.00;100685.63;3058025;19;20343;-52
2022/09/23 04:18:22;;;;;;;;;;;;;;;5.54;100.00;100682.06;3056754;19;19934;-53
2022/09/23 04:19:24;;;;;;;;;;;;;;;5.54;100.00;100682.06;3056665;19;19922;-52
2022/09/23 04:20:29;;;;;;;;;;;;;;;5.55;100.00;100688.22;3057173;19;20349;-52
2022/09/23 04:21:31;;;;;;;;;;;;;;;5.57;100.00;100681.06;3057505;19;19927;-53
2022/09/23 04:22:37;;;;;;;;;;;;;;;5.57;100.00;100689.00;3054809;19;19923;-53
2022/09/23 04:23:39;;;;;;;;;;;;;;;5.58;100.00;100683.66;3055828;19;19950;-52
2022/09/23 04:24:43;;;;;;;;;;;;;;;5.57;100.00;100686.34;3055379;19;20340;-53
2022/09/23 04:25:46;;;;;;;;;;;;;;;5.57;100.00;100681.94;3055944;19;19919;-52
2022/09/23 04:26:54;;;;;;;;;;;;;;;5.58;100.00;100685.44;3055686;19;19939;-52
2022/09/23 04:27:56;;;;;;;;;;;;;;;5.57;100.00;100686.34;3055711;19;20319;-53
2022/09/23 04:29:00;;;;;;;;;;;;;;;5.57;100.00;100696.94;3055675;19;19925;-53
2022/09/23 04:30:03;;;;;;;;;;;;;;;5.54;100.00;100690.00;3055772;19;19918;-52
2022/09/23 04:31:08;;;;;;;;;;;;;;;5.54;100.00;100692.66;3055451;19;19919;-52
2022/09/23 04:32:10;;;;;;;;;;;;;;;5.53;100.00;100690.94;3054062;19;19923;-52
2022/09/23 04:33:15;;;;;;;;;;;;;;;5.53;100.00;100690.94;3054958;19;19990;-52
2022/09/23 04:34:17;;;;;;;;;;;;;;;5.47;100.00;100679.69;3055886;19;19927;-52
2022/09/23 04:35:21;;;;;;;;;;;;;;;5.53;100.00;100692.72;3055713;19;19939;-52
2022/09/23 04:36:23;;;;;;;;;;;;;;;5.52;100.00;100696.28;3055601;19;19929;-52
2022/09/23 04:37:29;;;;;;;;;;;;;;;5.52;100.00;100693.63;3056430;19;19974;-52
2022/09/23 04:38:31;;;;;;;;;;;;;;;5.50;100.00;100688.38;3056110;19;19930;-53
2022/09/23 04:39:35;;;;;;;;;;;;;;;5.51;100.00;100690.13;3056252;19;19926;-52
2022/09/23 04:40:37;;;;;;;;;;;;;;;5.51;100.00;100697.19;3056305;19;19926;-52
2022/09/23 04:41:42;;;;;;;;;;;;;;;5.51;100.00;100697.19;3056366;19;19919;-52
2022/09/23 04:42:44;;;;;;;;;;;;;;;5.50;100.00;100695.47;3056192;19;19922;-52
2022/09/23 04:43:48;;;;;;;;;;;;;;;5.49;100.00;100694.59;3056157;19;20329;-52
2022/09/23 04:44:50;;;;;;;;;;;;;;;5.50;100.00;100695.47;3056337;19;19922;-52
2022/09/23 04:46:04;;;;;;;;;;;;;;;5.50;100.00;100695.47;3056553;19;19919;-52
2022/09/23 04:47:09;;;;;;;;;;;;;;;5.51;100.00;100697.19;3056076;19;19944;-52
2022/09/23 04:48:11;;;;;;;;;;;;;;;5.51;100.00;100690.13;3056319;19;19922;-53
2022/09/23 04:49:16;;;;;;;;;;;;;;;5.54;100.00;100694.44;3055947;19;19915;-52
2022/09/23 04:50:18;;;;;;;;;;;;;;;5.56;100.00;100689.91;3056388;19;19953;-53
2022/09/23 04:51:23;;;;;;;;;;;;;;;5.59;100.00;100687.16;3055865;19;19923;-52
2022/09/23 04:52:26;;;;;;;;;;;;;;;5.61;100.00;100683.53;3055310;19;20395;-53
2022/09/23 04:53:30;;;;;;;;;;;;;;;5.64;100.00;100677.28;3055841;19;20029;-53
2022/09/23 04:54:37;;;;;;;;;;;;;;;5.64;100.00;100679.94;3056090;19;20338;-53
2022/09/23 04:55:39;;;;;;;;;;;;;;;5.67;100.00;100682.47;3056132;19;20342;-52
2022/09/23 04:56:44;;;;;;;;;;;;;;;5.70;100.00;100677.03;3055493;19;20344;-52
2022/09/23 04:57:46;;;;;;;;;;;;;;;5.72;100.00;100680.47;3056100;19;19918;-52
2022/09/23 04:58:51;;;;;;;;;;;;;;;5.74;100.00;100670.69;3056641;19;19922;-52
2022/09/23 04:59:55;;;;;;;;;;;;;;;5.80;100.00;100673.09;3056319;19;19922;-52
2022/09/23 05:01:00;;;;;;;;;;;;;;;5.84;100.00;100680.00;3057454;19;19923;-53
2022/09/23 05:02:06;;;;;;;;;;;;;;;5.88;100.00;100676.38;3056277;19;19915;-52
2022/09/23 05:03:10;;;;;;;;;;;;;;;5.92;100.00;100675.28;3056193;19;19922;-52
2022/09/23 05:04:12;;;;;;;;;;;;;;;5.96;100.00;100682.22;3055955;19;20311;-53
2022/09/23 05:05:19;;;;;;;;;;;;;;;6.00;100.00;100670.59;3056491;19;19931;-53
2022/09/23 05:06:22;;;;;;;;;;;;;;;6.07;100.00;100676.47;3056327;19;19930;-52
2022/09/23 05:07:26;;;;;;;;;;;;;;;6.15;100.00;100674.41;3055996;19;20269;-52
2022/09/23 05:08:29;;;;;;;;;;;;;;;6.21;100.00;100673.28;3056221;19;19923;-52
2022/09/23 05:09:33;;;;;;;;;;;;;;;6.26;100.00;100676.63;3055976;19;19943;-53
2022/09/23 05:10:35;;;;;;;;;;;;;;;6.31;100.00;100682.56;3056010;19;19930;-52
2022/09/23 05:11:39;;;;;;;;;;;;;;;6.37;100.00;100680.56;3055942;19;19930;-53
2022/09/23 05:12:41;;;;;;;;;;;;;;;6.44;100.00;100684.66;3055595;19;19931;-53
2022/09/23 05:13:46;;;;;;;;;;;;;;;6.49;100.00;100679.19;3055684;19;20647;-53
2022/09/23 05:14:48;;;;;;;;;;;;;;;6.53;100.00;100675.44;3055931;19;20346;-52
2022/09/23 05:16:06;;;;;;;;;;;;;;;6.59;100.00;100679.66;3054819;19;20351;-52
2022/09/23 05:17:11;;;;;;;;;;;;;;;6.65;100.00;100674.94;3054997;19;20354;-52
2022/09/23 05:18:13;;;;;;;;;;;;;;;6.71;100.00;100674.69;3054727;19;19991;-52
2022/09/23 05:19:23;;;;;;;;;;;;;;;6.74;100.00;100673.72;3056040;19;19923;-52
2022/09/23 05:20:25;;;;;;;;;;;;;;;6.78;100.00;100676.16;3055800;19;19927;-53
2022/09/23 05:21:30;;;;;;;;;;;;;;;6.83;100.00;100676.81;3055683;19;20271;-52
2022/09/23 05:22:32;;;;;;;;;;;;;;;6.90;100.00;100680.06;3057273;19;20043;-53
2022/09/23 05:23:36;;;;;;;;;;;;;;;6.95;100.00;100663.94;3058931;19;19943;-53
2022/09/23 05:24:38;;;;;;;;;;;;;;;7.02;100.00;100673.34;3058761;19;20334;-52
2022/09/23 05:25:44;;;;;;;;;;;;;;;7.08;100.00;100667.78;3058845;19;19923;-53
2022/09/23 05:26:46;;;;;;;;;;;;;;;7.15;100.00;100670.09;3059000;19;19980;-52
2022/09/23 05:27:51;;;;;;;;;;;;;;;7.24;100.00;100668.84;3059197;19;19926;-53
2022/09/23 05:28:53;;;;;;;;;;;;;;;7.36;100.00;100672.72;3059074;19;19927;-52
2022/09/23 05:29:57;;;;;;;;;;;;;;;7.49;100.00;100668.56;3058960;19;19926;-52
2022/09/23 05:31:03;;;;;;;;;;;;;;;7.65;100.00;100663.41;3058997;19;19918;-52
2022/09/23 05:32:08;;;;;;;;;;;;;;;7.77;100.00;100663.69;3059217;19;19927;-53
2022/09/23 05:33:10;;;;;;;;;;;;;;;7.87;100.00;100667.63;3057873;19;19915;-52
2022/09/23 05:34:15;;;;;;;;;;;;;;;7.97;100.00;100666.25;3059010;19;19918;-53
2022/09/23 05:35:17;;;;;;;;;;;;;;;8.08;100.00;100663.09;3058857;19;20547;-52
2022/09/23 05:36:22;;;;;;;;;;;;;;;8.18;100.00;100664.38;3058598;19;19923;-52
2022/09/23 05:37:24;;;;;;;;;;;;;;;8.25;100.00;100664.91;3058778;19;19915;-55
2022/09/23 05:38:31;;;;;;;;;;;;;;;8.34;100.00;100663.63;3059078;19;19919;-52
2022/09/23 05:39:36;;;;;;;;;;;;;;;8.40;100.00;100669.53;3058914;19;19942;-53